Time;durP1;ratioP1;P1;durP2;ratioP2;P2;SDS_P1;SDS_P2;PMS_P1;PMS_P2;Temp;Humidity;BMP_temperature;BMP_pressure;BME280_temperature;BME280_humidity;BME280_pressure;Samples;Min_cycle;Max_cycle;Signal;HPM_P1;HPM_P2
2022/12/23 00:01:02;;;;;;;63.10;27.50;;;8.60;99.90;;;;;;5046696;28;20029;-56
2022/12/23 00:03:29;;;;;;;69.90;27.77;;;8.50;99.90;;;;;;5047148;28;20037;-56
2022/12/23 00:05:54;;;;;;;;;;;8.60;99.90;;;;;;5047750;28;20037;-57
2022/12/23 00:08:21;;;;;;;64.18;26.42;;;8.60;99.90;;;;;;5047747;28;19917;-54
2022/12/23 00:10:47;;;;;;;;;;;8.60;99.90;;;;;;5049360;28;21401;-56
2022/12/23 00:16:15;;;;;;;52.85;21.52;;;8.60;99.90;;;;;;5048278;28;20418;-56
2022/12/23 00:18:41;;;;;;;44.40;20.75;;;8.60;99.90;;;;;;5044600;28;20040;-56
2022/12/23 00:21:09;;;;;;;46.50;20.77;;;8.60;99.90;;;;;;5046413;28;20474;-56
2022/12/23 00:23:37;;;;;;;44.25;20.00;;;8.60;99.90;;;;;;5046455;28;20483;-56
2022/12/23 00:26:04;;;;;;;49.40;20.38;;;8.60;99.90;;;;;;5047947;28;20037;-57
2022/12/23 00:28:30;;;;;;;46.17;19.88;;;8.60;99.90;;;;;;5047725;28;20041;-55
2022/12/23 00:31:02;;;;;;;41.70;19.60;;;8.60;99.90;;;;;;5048803;28;20530;-56
2022/12/23 00:33:34;;;;;;;40.88;19.85;;;8.60;99.90;;;;;;5044187;28;20049;-56
2022/12/23 00:36:00;;;;;;;42.53;20.08;;;8.60;99.90;;;;;;5047992;28;20049;-57
2022/12/23 00:43:57;;;;;;;42.72;17.85;;;8.70;99.90;;;;;;5047106;28;20491;-57
2022/12/23 00:46:22;;;;;;;38.27;19.50;;;8.70;99.90;;;;;;5047985;28;20033;-56
2022/12/23 00:51:32;;;;;;;47.55;20.95;;;8.70;99.90;;;;;;5046934;28;20037;-56
2022/12/23 00:53:58;;;;;;;38.57;17.63;;;8.70;99.90;;;;;;5047325;28;20041;-57
2022/12/23 00:56:23;;;;;;;40.93;19.80;;;8.70;99.90;;;;;;5047993;28;20037;-57
2022/12/23 00:58:49;;;;;;;43.23;19.43;;;8.60;99.90;;;;;;5047457;28;20080;-57
2022/12/23 01:06:43;;;;;;;40.22;19.27;;;8.70;99.90;;;;;;5048458;28;20033;-52
2022/12/23 01:09:09;;;;;;;45.80;20.73;;;8.70;99.90;;;;;;5048037;28;20041;-55
2022/12/23 01:11:34;;;;;;;48.17;20.23;;;8.70;99.90;;;;;;5046561;28;20037;-52
2022/12/23 01:14:00;;;;;;;48.77;20.30;;;8.70;99.90;;;;;;5047523;28;20108;-53
2022/12/23 01:16:25;;;;;;;38.90;19.07;;;8.70;99.90;;;;;;5047020;28;20068;-55
2022/12/23 01:18:51;;;;;;;39.93;17.83;;;8.70;99.90;;;;;;5048709;28;20033;-56
2022/12/23 01:21:17;;;;;;;40.43;19.43;;;8.70;99.90;;;;;;5048780;28;20087;-54
2022/12/23 01:23:42;;;;;;;40.43;19.03;;;8.70;99.90;;;;;;5047405;28;20071;-52
2022/12/23 01:26:09;;;;;;;35.13;18.23;;;8.70;99.90;;;;;;5050213;28;20037;-55
2022/12/23 01:28:35;;;;;;;46.28;21.27;;;8.70;99.90;;;;;;5049297;28;20036;-52
2022/12/23 01:31:02;;;;;;;33.10;18.07;;;8.70;99.90;;;;;;5051529;28;20043;-55
2022/12/23 01:33:28;;;;;;;45.30;19.05;;;8.60;99.90;;;;;;5050463;28;20546;-55
2022/12/23 01:36:05;;;;;;;40.95;20.05;;;8.70;99.90;;;;;;5051114;28;20053;-55
2022/12/23 01:38:31;;;;;;;46.92;20.13;;;8.70;99.90;;;;;;5050858;28;20107;-57
2022/12/23 01:40:57;;;;;;;;;;;8.70;99.90;;;;;;5052145;28;20041;-52
2022/12/23 01:43:42;;;;;;;40.97;18.58;;;8.70;99.90;;;;;;5050246;28;20378;-55
2022/12/23 01:46:08;;;;;;;45.05;19.27;;;8.70;99.90;;;;;;5051362;28;20121;-54
2022/12/23 01:48:33;;;;;;;39.23;18.60;;;8.70;99.90;;;;;;5050983;28;20413;-54
2022/12/23 01:51:05;;;;;;;44.60;20.17;;;8.70;99.90;;;;;;5050479;28;20544;-55
2022/12/23 01:53:35;;;;;;;59.08;20.63;;;8.70;99.90;;;;;;5049225;28;20295;-57
2022/12/23 01:56:04;;;;;;;46.60;19.67;;;8.70;99.90;;;;;;5050791;28;20087;-54
2022/12/23 01:58:41;;;;;;;44.15;19.27;;;8.70;99.90;;;;;;5050397;28;20071;-55
2022/12/23 02:03:57;;;;;;;38.70;18.13;;;8.80;99.90;;;;;;5049972;28;20045;-57
2022/12/23 02:09:26;;;;;;;47.83;19.42;;;8.70;99.90;;;;;;5050059;28;21294;-56
2022/12/23 02:12:20;;;;;;;36.63;18.25;;;8.80;99.90;;;;;;5050601;28;20044;-54
2022/12/23 02:18:29;;;;;;;46.33;21.75;;;8.80;99.90;;;;;;5050351;28;20044;-54
2022/12/23 02:21:16;;;;;;;45.13;20.02;;;8.80;99.90;;;;;;5050869;28;20033;-56
2022/12/23 02:24:01;;;;;;;40.88;19.00;;;8.80;99.90;;;;;;5048128;28;20037;-57
2022/12/23 02:26:45;;;;;;;52.65;19.85;;;8.80;99.90;;;;;;5050053;28;20029;-55
2022/12/23 02:29:21;;;;;;;40.85;17.35;;;8.80;99.90;;;;;;5050233;28;20041;-56
2022/12/23 02:32:02;;;;;;;33.70;16.23;;;8.80;99.90;;;;;;5050609;28;20040;-56
2022/12/23 02:34:27;;;;;;;34.95;16.13;;;8.80;99.90;;;;;;5049398;28;20518;-56
2022/12/23 02:37:18;;;;;;;33.43;15.50;;;8.80;99.90;;;;;;5049033;28;20137;-57
2022/12/23 02:40:09;;;;;;;27.83;13.65;;;8.70;99.90;;;;;;5050485;28;20037;-57
2022/12/23 02:42:51;;;;;;;37.40;14.48;;;8.80;99.90;;;;;;5050565;28;20334;-57
2022/12/23 02:45:33;;;;;;;26.77;12.27;;;8.70;99.90;;;;;;5050305;28;20044;-56
2022/12/23 02:48:15;;;;;;;24.70;11.80;;;8.70;99.90;;;;;;5051706;28;20463;-56
2022/12/23 02:50:43;;;;;;;21.67;10.55;;;8.70;99.90;;;;;;5082554;28;20045;-57
2022/12/23 02:53:19;;;;;;;21.10;10.90;;;8.70;99.90;;;;;;5049777;28;20037;-56
2022/12/23 02:55:48;;;;;;;22.02;10.32;;;8.70;99.90;;;;;;5047864;28;20049;-57
2022/12/23 02:58:17;;;;;;;16.27;9.40;;;8.70;99.90;;;;;;5049911;28;20033;-57
2022/12/23 03:00:44;;;;;;;18.55;9.35;;;8.70;99.90;;;;;;5049742;28;20187;-57
2022/12/23 03:03:10;;;;;;;17.20;9.40;;;8.70;99.90;;;;;;5046339;28;20080;-57
2022/12/23 03:05:41;;;;;;;21.17;11.18;;;8.70;99.90;;;;;;5049833;28;20522;-57
2022/12/23 03:08:19;;;;;;;19.30;10.93;;;8.70;99.90;;;;;;5044797;28;20045;-57
2022/12/23 03:11:07;;;;;;;23.83;12.00;;;8.70;99.90;;;;;;5042866;28;20047;-56
2022/12/23 03:14:11;;;;;;;20.92;11.60;;;8.70;99.90;;;;;;5048232;28;20502;-56
2022/12/23 03:16:53;;;;;;;21.88;11.35;;;8.70;99.90;;;;;;5025985;28;20052;-57
2022/12/23 03:19:35;;;;;;;17.55;10.45;;;8.60;99.90;;;;;;5049247;28;20037;-57
2022/12/23 03:22:06;;;;;;;19.10;10.50;;;8.60;99.90;;;;;;5049541;28;20068;-56
2022/12/23 03:24:43;;;;;;;18.58;10.10;;;8.60;99.90;;;;;;5048647;28;20044;-56
2022/12/23 03:27:32;;;;;;;16.02;10.20;;;8.60;99.90;;;;;;5049399;28;20075;-54
2022/12/23 03:30:12;;;;;;;16.38;9.15;;;8.60;99.90;;;;;;5046777;28;20037;-56
2022/12/23 03:32:54;;;;;;;13.60;9.35;;;8.60;99.90;;;;;;5046731;28;20041;-53
2022/12/23 03:35:29;;;;;;;17.65;10.00;;;8.60;99.90;;;;;;5048532;28;20390;-53
2022/12/23 03:37:58;;;;;;;19.95;12.23;;;8.60;99.90;;;;;;5049139;28;20064;-53
2022/12/23 03:40:25;;;;;;;14.93;9.90;;;8.50;99.90;;;;;;5049330;28;20069;-54
2022/12/23 03:42:56;;;;;;;16.83;11.30;;;8.50;99.90;;;;;;5048735;28;20375;-56
2022/12/23 03:45:36;;;;;;;15.07;10.77;;;8.50;99.90;;;;;;5048624;28;20036;-56
2022/12/23 03:48:08;;;;;;;17.38;11.30;;;8.50;99.90;;;;;;5047823;28;20075;-56
2022/12/23 03:50:35;;;;;;;21.83;13.52;;;8.50;99.90;;;;;;5047845;28;20053;-53
2022/12/23 03:53:07;;;;;;;21.98;12.50;;;8.40;99.90;;;;;;5047533;28;20041;-52
2022/12/23 03:55:40;;;;;;;19.02;12.27;;;8.40;99.90;;;;;;5048859;28;20025;-52
2022/12/23 03:58:27;;;;;;;23.33;13.85;;;8.40;99.90;;;;;;5048213;28;20036;-55
2022/12/23 04:01:10;;;;;;;22.88;14.50;;;8.40;99.90;;;;;;5047597;28;20040;-56
2022/12/23 04:03:54;;;;;;;25.05;14.35;;;8.40;99.90;;;;;;5048045;28;20033;-53
2022/12/23 04:06:21;;;;;;;25.17;14.85;;;8.40;99.90;;;;;;5048172;28;20036;-55
2022/12/23 04:08:47;;;;;;;21.50;14.02;;;8.40;99.90;;;;;;5048634;28;20037;-53
2022/12/23 04:11:13;;;;;;;24.85;14.73;;;8.30;99.90;;;;;;5048588;28;20069;-54
2022/12/23 04:13:39;;;;;;;29.17;16.27;;;8.30;99.90;;;;;;5046975;28;20064;-53
2022/12/23 04:16:05;;;;;;;27.47;16.90;;;8.30;99.90;;;;;;5048312;28;20043;-54
2022/12/23 04:18:31;;;;;;;25.27;15.02;;;8.30;99.90;;;;;;5048133;28;20032;-56
2022/12/23 04:20:56;;;;;;;27.77;16.83;;;8.30;99.90;;;;;;5047966;28;20079;-54
2022/12/23 04:23:22;;;;;;;27.63;18.03;;;8.30;99.90;;;;;;5047197;28;20318;-55
2022/12/23 04:25:47;;;;;;;28.47;17.53;;;8.30;99.90;;;;;;5045552;28;20037;-55
2022/12/23 04:28:13;;;;;;;29.93;18.27;;;8.30;99.90;;;;;;5048371;28;20041;-55
2022/12/23 04:30:39;;;;;;;37.03;20.13;;;8.30;99.90;;;;;;5047457;28;20760;-55
2022/12/23 04:33:04;;;;;;;32.83;19.33;;;8.30;99.90;;;;;;5047245;28;20360;-55
2022/12/23 04:35:30;;;;;;;39.70;20.40;;;8.30;99.90;;;;;;5048329;28;20321;-56
2022/12/23 04:37:55;;;;;;;34.53;19.97;;;8.20;99.90;;;;;;5047745;28;20041;-56
2022/12/23 04:40:21;;;;;;;38.95;20.17;;;8.20;99.90;;;;;;5046208;28;20150;-56
2022/12/23 04:42:47;;;;;;;35.33;21.07;;;8.20;99.90;;;;;;5048261;28;20060;-56
2022/12/23 04:45:12;;;;;;;36.47;20.27;;;8.20;99.90;;;;;;5047476;28;20051;-52
2022/12/23 04:47:39;;;;;;;32.87;19.70;;;8.20;99.90;;;;;;5047962;28;20052;-55
2022/12/23 04:50:05;;;;;;;37.60;20.83;;;8.20;99.90;;;;;;5048018;28;20053;-57
2022/12/23 04:52:31;;;;;;;37.85;20.73;;;8.20;99.90;;;;;;5048461;28;20087;-53
2022/12/23 04:54:56;;;;;;;42.43;20.43;;;8.20;99.90;;;;;;5047221;28;20481;-56
2022/12/23 04:57:22;;;;;;;40.37;20.23;;;8.20;99.90;;;;;;5047984;28;20040;-56
2022/12/23 04:59:48;;;;;;;53.57;23.10;;;8.20;99.90;;;;;;5050128;28;20090;-57
2022/12/23 05:02:13;;;;;;;53.00;23.23;;;8.20;99.90;;;;;;5052280;28;20682;-56
2022/12/23 05:04:39;;;;;;;59.47;23.43;;;8.10;99.90;;;;;;5050639;28;20383;-54
2022/12/23 05:07:04;;;;;;;45.27;22.67;;;8.10;99.90;;;;;;5051688;28;20494;-55
2022/12/23 05:09:30;;;;;;;55.63;23.63;;;8.10;99.90;;;;;;5052022;28;20780;-57
2022/12/23 05:11:55;;;;;;;48.10;24.50;;;8.10;99.90;;;;;;5052256;28;20118;-56
2022/12/23 05:14:21;;;;;;;44.43;22.63;;;8.10;99.90;;;;;;5050701;28;20037;-57
2022/12/23 05:16:46;;;;;;;48.63;25.43;;;8.10;99.90;;;;;;5051814;28;20029;-56
2022/12/23 05:19:12;;;;;;;54.47;25.23;;;8.10;99.90;;;;;;5051165;28;20029;-56
2022/12/23 05:21:38;;;;;;;57.93;26.27;;;8.10;99.90;;;;;;5051844;28;20045;-55
2022/12/23 05:24:03;;;;;;;52.17;24.27;;;8.10;99.90;;;;;;5050688;28;20036;-57
2022/12/23 05:26:29;;;;;;;61.55;26.08;;;8.20;99.90;;;;;;5051615;28;20656;-57
2022/12/23 05:28:55;;;;;;;54.57;24.87;;;8.10;99.90;;;;;;5051808;28;20071;-57
2022/12/23 05:31:20;;;;;;;52.60;22.88;;;8.10;99.90;;;;;;5048613;28;20536;-57
2022/12/23 05:33:46;;;;;;;49.73;24.37;;;8.10;99.90;;;;;;5050362;28;20037;-56
2022/12/23 05:36:12;;;;;;;72.60;26.83;;;8.10;99.90;;;;;;5050561;28;20086;-57
2022/12/23 05:38:37;;;;;;;72.45;26.17;;;8.10;99.90;;;;;;5051146;28;20041;-57
2022/12/23 05:41:04;;;;;;;112.13;26.02;;;8.10;99.90;;;;;;5050576;28;20043;-57
2022/12/23 05:43:29;;;;;;;117.63;28.83;;;8.00;99.90;;;;;;5049828;28;20032;-56
2022/12/23 05:45:55;;;;;;;56.43;27.13;;;8.00;99.90;;;;;;5051593;28;20083;-55
2022/12/23 05:48:21;;;;;;;81.38;27.17;;;7.90;99.90;;;;;;5050906;28;20039;-55
2022/12/23 05:50:51;;;;;;;169.90;26.85;;;7.90;99.90;;;;;;5050932;28;20037;-52
2022/12/23 05:53:20;;;;;;;104.88;23.35;;;7.90;99.90;;;;;;5048038;28;20548;-54
2022/12/23 05:55:47;;;;;;;112.30;23.67;;;7.90;99.90;;;;;;5050850;28;20083;-54
2022/12/23 05:58:12;;;;;;;106.13;23.17;;;7.80;99.90;;;;;;5051274;28;20037;-56
2022/12/23 06:00:38;;;;;;;79.57;23.73;;;7.80;99.90;;;;;;5051655;28;20053;-54
2022/12/23 06:03:04;;;;;;;54.30;21.63;;;7.80;99.90;;;;;;5046245;28;20474;-56
2022/12/23 06:05:29;;;;;;;71.03;22.43;;;7.80;99.90;;;;;;5051128;28;20706;-55
2022/12/23 06:07:55;;;;;;;175.87;24.50;;;7.80;99.90;;;;;;5050800;28;20155;-56
2022/12/23 06:10:20;;;;;;;196.30;24.47;;;7.90;99.90;;;;;;5050266;28;20562;-57
2022/12/23 06:12:46;;;;;;;254.80;26.27;;;7.80;99.90;;;;;;5050874;28;20085;-57
2022/12/23 06:15:12;;;;;;;116.97;24.20;;;7.70;99.90;;;;;;5049943;28;20310;-54
2022/12/23 06:17:37;;;;;;;62.55;22.23;;;7.70;99.90;;;;;;5050375;28;20402;-52
2022/12/23 06:20:04;;;;;;;131.73;22.58;;;7.70;99.90;;;;;;5051099;28;20040;-53
2022/12/23 06:22:30;;;;;;;;;;;7.70;99.90;;;;;;5051340;28;20140;-56
2022/12/23 06:24:55;;;;;;;51.30;19.00;;;7.70;99.90;;;;;;5049757;28;20320;-55
2022/12/23 06:27:21;;;;;;;125.67;23.97;;;7.70;99.90;;;;;;5049886;28;20037;-55
2022/12/23 06:29:47;;;;;;;53.10;22.38;;;7.70;99.90;;;;;;5050834;28;20037;-56
2022/12/23 06:32:13;;;;;;;120.38;23.70;;;7.70;99.90;;;;;;5049881;28;20449;-56
2022/12/23 06:34:38;;;;;;;112.80;25.02;;;7.80;99.90;;;;;;5049106;28;20486;-56
2022/12/23 06:37:04;;;;;;;131.17;24.47;;;7.80;99.90;;;;;;5050146;28;20041;-56
2022/12/23 06:39:30;;;;;;;75.03;22.37;;;7.80;99.90;;;;;;5050416;28;20107;-55
2022/12/23 06:41:55;;;;;;;96.95;23.98;;;7.80;99.90;;;;;;5050154;28;20527;-54
2022/12/23 06:44:21;;;;;;;103.83;22.27;;;7.70;99.90;;;;;;5049146;28;20490;-57
2022/12/23 06:46:46;;;;;;;46.67;20.20;;;7.70;99.90;;;;;;5049483;28;20033;-56
2022/12/23 06:49:12;;;;;;;64.20;20.73;;;7.70;99.90;;;;;;5049557;28;20048;-57
2022/12/23 06:51:37;;;;;;;59.83;20.93;;;7.70;99.90;;;;;;5049488;28;20127;-55
2022/12/23 06:54:03;;;;;;;70.73;21.60;;;7.80;99.90;;;;;;5046299;28;20033;-54
2022/12/23 06:56:28;;;;;;;116.27;24.57;;;7.70;99.90;;;;;;5048461;28;20041;-53
2022/12/23 06:58:54;;;;;;;64.07;23.17;;;7.80;99.90;;;;;;5049581;28;20037;-56
2022/12/23 07:01:20;;;;;;;101.20;22.23;;;7.80;99.90;;;;;;5049643;28;20428;-57
2022/12/23 07:03:46;;;;;;;186.75;22.35;;;7.80;99.90;;;;;;5048368;28;20068;-56
2022/12/23 07:06:12;;;;;;;92.10;21.70;;;7.80;99.90;;;;;;5047029;28;20033;-52
2022/12/23 07:08:38;;;;;;;276.67;28.08;;;7.70;99.90;;;;;;5048857;28;20460;-55
2022/12/23 07:11:04;;;;;;;63.77;17.83;;;7.70;99.90;;;;;;5048802;28;20047;-57
2022/12/23 07:13:31;;;;;;;103.55;20.50;;;7.70;99.90;;;;;;5048567;28;20053;-56
2022/12/23 07:15:57;;;;;;;90.93;20.45;;;7.70;99.90;;;;;;5049010;28;20072;-55
2022/12/23 07:18:24;;;;;;;58.05;20.08;;;7.60;99.90;;;;;;5048339;28;20071;-57
2022/12/23 07:20:50;;;;;;;;;;;7.60;99.90;;;;;;5049987;28;20541;-56
2022/12/23 07:23:15;;;;;;;56.67;17.80;;;7.60;99.90;;;;;;5048895;28;19999;-53
2022/12/23 07:25:41;;;;;;;99.10;19.73;;;7.60;99.90;;;;;;5049693;28;20127;-56
2022/12/23 07:28:07;;;;;;;72.80;19.47;;;7.60;99.90;;;;;;5046576;28;20120;-55
2022/12/23 07:30:32;;;;;;;51.13;19.90;;;7.60;99.90;;;;;;5049021;28;20033;-56
2022/12/23 07:32:58;;;;;;;59.70;19.73;;;7.60;99.90;;;;;;5048931;28;20127;-55
2022/12/23 07:35:24;;;;;;;55.27;18.87;;;7.60;99.90;;;;;;5049450;28;20131;-55
2022/12/23 07:37:52;;;;;;;37.70;17.80;;;7.60;99.90;;;;;;5049501;28;20121;-55
2022/12/23 07:40:17;;;;;;;72.13;19.08;;;7.60;99.90;;;;;;5078708;28;20041;-54
2022/12/23 07:42:43;;;;;;;68.03;19.20;;;7.70;99.90;;;;;;5045331;28;20423;-56
2022/12/23 07:45:09;;;;;;;41.97;17.17;;;7.70;99.90;;;;;;5040913;28;20047;-56
2022/12/23 07:47:34;;;;;;;71.63;18.65;;;7.60;99.90;;;;;;5038892;28;20582;-56
2022/12/23 07:50:00;;;;;;;56.73;18.53;;;7.60;99.90;;;;;;5044691;28;20731;-57
2022/12/23 07:52:26;;;;;;;82.30;19.27;;;7.50;99.90;;;;;;5039133;28;20048;-57
2022/12/23 07:54:52;;;;;;;;;;;7.50;99.90;;;;;;5040480;28;20136;-57
2022/12/23 07:57:17;;;;;;;46.92;18.55;;;7.50;99.90;;;;;;5047262;28;20008;-56
2022/12/23 07:59:43;;;;;;;47.33;16.33;;;7.50;99.90;;;;;;5050167;28;20490;-57
2022/12/23 08:02:10;;;;;;;36.80;16.80;;;7.50;99.90;;;;;;5041100;28;20566;-55
2022/12/23 08:04:35;;;;;;;32.67;15.68;;;7.50;99.90;;;;;;5021097;28;20809;-56
2022/12/23 08:07:01;;;;;;;83.07;19.80;;;7.50;99.90;;;;;;5033829;28;20147;-55
2022/12/23 08:09:26;;;;;;;126.17;20.37;;;7.50;99.90;;;;;;5056963;28;20486;-53
2022/12/23 08:11:52;;;;;;;37.23;16.90;;;7.50;99.90;;;;;;5051445;28;20064;-57
2022/12/23 08:14:17;;;;;;;74.23;17.40;;;7.60;99.90;;;;;;5050779;28;20112;-56
2022/12/23 08:16:43;;;;;;;111.57;19.43;;;7.50;99.90;;;;;;5051918;28;20120;-56
2022/12/23 08:19:08;;;;;;;221.83;24.07;;;7.50;99.90;;;;;;5051154;28;20043;-54
2022/12/23 08:21:34;;;;;;;136.93;19.70;;;7.40;99.90;;;;;;5058627;28;20120;-52
2022/12/23 08:24:00;;;;;;;70.57;16.53;;;7.40;99.90;;;;;;5060460;28;20067;-55
2022/12/23 08:26:26;;;;;;;31.10;13.17;;;7.50;99.90;;;;;;5050898;28;20443;-57
2022/12/23 08:28:52;;;;;;;82.20;16.98;;;7.40;99.90;;;;;;5054352;28;20040;-55
2022/12/23 08:31:24;;;;;;;79.60;16.73;;;7.50;99.90;;;;;;5056795;28;20512;-53
2022/12/23 08:33:53;;;;;;;168.68;18.48;;;7.40;99.90;;;;;;5054457;28;20052;-55
2022/12/23 08:36:21;;;;;;;173.88;19.75;;;7.50;99.90;;;;;;5055528;28;20033;-55
2022/12/23 08:38:47;;;;;;;145.25;20.17;;;7.50;99.90;;;;;;5057259;28;20044;-57
2022/12/23 08:41:16;;;;;;;144.90;20.83;;;7.50;99.90;;;;;;5057289;28;20036;-54
2022/12/23 08:43:43;;;;;;;152.05;21.63;;;7.50;99.90;;;;;;5054481;28;20033;-56
2022/12/23 08:46:09;;;;;;;151.80;18.08;;;7.60;99.90;;;;;;5055941;28;20040;-54
2022/12/23 08:48:35;;;;;;;176.05;20.77;;;7.60;99.90;;;;;;5056356;28;20168;-57
2022/12/23 08:51:09;;;;;;;107.10;20.35;;;7.60;99.90;;;;;;5050410;28;20095;-53
2022/12/23 08:53:36;;;;;;;52.67;16.73;;;7.70;99.90;;;;;;5056350;28;20171;-56
2022/12/23 08:56:07;;;;;;;170.73;18.70;;;7.70;99.90;;;;;;5050012;28;20124;-55
2022/12/23 08:58:47;;;;;;;209.05;22.40;;;7.70;99.90;;;;;;5056900;28;20036;-55
2022/12/23 09:01:16;;;;;;;204.77;23.85;;;7.70;99.90;;;;;;5046824;28;20072;-55
2022/12/23 09:03:42;;;;;;;161.73;21.50;;;7.70;99.90;;;;;;5051994;28;20536;-57
2022/12/23 09:06:18;;;;;;;129.68;21.52;;;7.70;99.90;;;;;;5053777;28;20079;-56
2022/12/23 09:08:44;;;;;;;150.13;24.17;;;7.70;99.90;;;;;;5052889;28;20032;-56
2022/12/23 09:11:11;;;;;;;;;;;7.70;99.90;;;;;;5053191;28;20533;-55
2022/12/23 09:13:37;;;;;;;86.25;19.88;;;7.70;99.90;;;;;;5054027;28;19971;-56
2022/12/23 09:16:04;;;;;;;101.72;25.20;;;7.70;99.90;;;;;;5053428;28;20041;-57
2022/12/23 09:18:30;;;;;;;65.03;21.35;;;7.70;99.90;;;;;;5045787;28;20464;-58
2022/12/23 09:21:08;;;;;;;50.08;19.20;;;7.70;99.90;;;;;;5051515;28;20493;-55
2022/12/23 09:23:34;;;;;;;57.22;20.88;;;7.70;99.90;;;;;;5051856;28;20028;-57
2022/12/23 09:25:59;;;;;;;89.60;24.30;;;7.80;99.90;;;;;;5049485;28;20378;-58
2022/12/23 09:28:25;;;;;;;42.00;17.97;;;7.80;99.90;;;;;;5050517;28;20072;-56
2022/12/23 09:30:51;;;;;;;44.72;17.77;;;7.80;99.90;;;;;;5059766;28;20640;-59
2022/12/23 09:33:18;;;;;;;84.45;19.40;;;7.80;99.90;;;;;;5059713;28;20062;-56
2022/12/23 09:35:44;;;;;;;179.40;25.38;;;7.90;99.90;;;;;;5054296;28;20084;-59
2022/12/23 09:38:09;;;;;;;281.17;31.13;;;7.90;99.90;;;;;;5057244;28;20075;-58
2022/12/23 09:40:37;;;;;;;309.50;33.13;;;7.90;99.90;;;;;;5059123;28;20294;-58
2022/12/23 09:43:27;;;;;;;305.95;32.03;;;7.90;99.90;;;;;;5047860;28;20091;-56
2022/12/23 09:46:05;;;;;;;254.15;28.98;;;7.90;99.90;;;;;;5056925;28;20098;-58
2022/12/23 09:48:44;;;;;;;254.23;30.45;;;7.90;99.90;;;;;;5054465;28;20044;-57
2022/12/23 09:51:11;;;;;;;166.98;22.60;;;7.80;99.90;;;;;;5058728;28;20088;-56
2022/12/23 09:53:52;;;;;;;319.65;32.28;;;7.80;99.90;;;;;;5054486;28;20074;-56
2022/12/23 09:56:34;;;;;;;288.00;31.05;;;7.80;99.90;;;;;;5058743;28;20048;-58
2022/12/23 09:59:16;;;;;;;332.83;35.72;;;7.80;99.90;;;;;;5060547;28;20456;-58
2022/12/23 10:01:58;;;;;;;332.80;32.97;;;7.80;99.90;;;;;;5060126;28;20052;-57
2022/12/23 10:04:55;;;;;;;352.95;37.50;;;7.80;99.90;;;;;;5056883;28;20041;-58
2022/12/23 10:07:41;;;;;;;367.40;38.70;;;7.70;99.90;;;;;;5056306;28;20037;-58
2022/12/23 10:10:16;;;;;;;167.23;30.40;;;7.70;99.90;;;;;;5058129;28;20545;-57
2022/12/23 10:12:46;;;;;;;107.55;28.67;;;7.70;99.90;;;;;;5056973;28;20490;-58
2022/12/23 10:15:36;;;;;;;96.65;26.23;;;7.80;99.90;;;;;;5059932;28;20041;-58
2022/12/23 10:18:15;;;;;;;91.18;25.20;;;7.80;99.90;;;;;;5055319;28;20037;-58
2022/12/23 10:20:52;;;;;;;89.40;25.33;;;7.70;99.90;;;;;;5059311;28;20037;-58
2022/12/23 10:23:33;;;;;;;81.27;24.87;;;7.80;99.90;;;;;;5054622;28;20036;-58
2022/12/23 10:26:02;;;;;;;86.55;26.05;;;7.70;99.90;;;;;;5060214;28;20289;-57
2022/12/23 10:28:31;;;;;;;95.57;25.70;;;7.80;99.90;;;;;;5052769;28;20045;-57
2022/12/23 10:31:10;;;;;;;75.97;24.30;;;7.80;99.90;;;;;;5053622;28;20051;-55
2022/12/23 10:34:01;;;;;;;85.25;26.65;;;7.80;99.90;;;;;;5051568;28;20397;-57
2022/12/23 10:36:47;;;;;;;83.20;26.30;;;7.80;99.90;;;;;;5072019;28;20055;-57
2022/12/23 10:39:22;;;;;;;66.18;23.23;;;7.90;99.90;;;;;;5049071;28;20037;-57
2022/12/23 10:42:05;;;;;;;68.13;24.00;;;7.90;99.90;;;;;;5049746;28;20435;-57
2022/12/23 10:45:02;;;;;;;71.20;24.70;;;7.90;99.90;;;;;;5049714;28;20040;-55
2022/12/23 10:47:36;;;;;;;77.45;27.17;;;8.00;99.90;;;;;;5053534;28;20033;-57
2022/12/23 10:50:13;;;;;;;80.85;26.35;;;8.00;99.90;;;;;;5048644;28;20052;-57
2022/12/23 10:52:41;;;;;;;73.07;25.05;;;8.10;99.90;;;;;;5050424;28;20033;-56
2022/12/23 10:55:21;;;;;;;71.50;25.35;;;8.10;99.90;;;;;;5049170;28;20352;-57
2022/12/23 10:57:48;;;;;;;65.97;23.88;;;8.10;99.90;;;;;;5052116;28;20041;-57
2022/12/23 11:00:20;;;;;;;77.43;26.25;;;8.10;99.90;;;;;;5052230;28;20056;-57
2022/12/23 11:03:06;;;;;;;66.30;23.67;;;8.10;99.90;;;;;;5052070;28;20489;-55
2022/12/23 11:05:33;;;;;;;68.03;24.02;;;8.10;99.90;;;;;;5057033;28;20417;-57
2022/12/23 11:07:58;;;;;;;;;;;8.20;99.90;;;;;;5062059;28;20051;-58
2022/12/23 11:10:31;;;;;;;63.63;22.48;;;8.20;99.90;;;;;;5058377;28;20293;-56
2022/12/23 11:12:57;;;;;;;68.10;23.05;;;8.20;99.90;;;;;;5054452;28;20040;-56
2022/12/23 11:15:28;;;;;;;59.22;22.50;;;8.20;99.90;;;;;;5059346;28;20041;-56
2022/12/23 11:18:00;;;;;;;59.72;23.92;;;8.20;99.90;;;;;;5058683;28;20041;-57
2022/12/23 11:20:26;;;;;;;63.78;23.45;;;8.20;99.90;;;;;;5062069;28;20036;-57
2022/12/23 11:23:01;;;;;;;60.13;23.90;;;8.20;99.90;;;;;;5058158;28;20033;-58
2022/12/23 11:25:28;;;;;;;73.50;25.17;;;8.20;99.90;;;;;;5061808;28;20043;-56
2022/12/23 11:27:59;;;;;;;64.60;23.42;;;8.30;99.90;;;;;;5060575;28;20211;-57
2022/12/23 11:30:25;;;;;;;57.03;21.13;;;8.30;99.90;;;;;;5061599;28;20040;-57
2022/12/23 11:32:51;;;;;;;59.70;22.10;;;8.30;99.90;;;;;;5057220;28;20498;-57
2022/12/23 11:35:29;;;;;;;59.92;21.92;;;8.30;99.90;;;;;;5061080;28;20047;-58
2022/12/23 11:37:57;;;;;;;51.15;20.50;;;8.30;99.90;;;;;;5053892;28;20041;-57
2022/12/23 11:40:33;;;;;;;64.90;21.27;;;8.30;99.90;;;;;;5061237;28;20036;-57
2022/12/23 11:43:11;;;;;;;58.67;22.27;;;8.40;99.90;;;;;;5056608;28;20705;-57
2022/12/23 11:45:37;;;;;;;65.15;23.23;;;8.30;99.90;;;;;;5059916;28;20290;-58
2022/12/23 11:48:05;;;;;;;66.07;23.83;;;8.40;99.90;;;;;;5054664;28;20036;-58
2022/12/23 11:50:38;;;;;;;63.25;22.52;;;8.40;99.90;;;;;;5058736;28;20037;-57
2022/12/23 11:53:31;;;;;;;58.05;20.67;;;8.40;99.90;;;;;;5051802;28;20059;-58
2022/12/23 11:56:09;;;;;;;64.35;22.35;;;8.40;99.90;;;;;;5045863;28;20545;-58
2022/12/23 11:58:56;;;;;;;58.13;20.77;;;8.40;99.90;;;;;;5057171;28;20033;-55
2022/12/23 12:01:23;;;;;;;58.90;22.60;;;8.40;99.90;;;;;;5056763;28;20409;-57
2022/12/23 12:03:54;;;;;;;54.85;20.45;;;8.40;99.90;;;;;;5052576;28;20080;-58
2022/12/23 12:06:21;;;;;;;53.88;20.33;;;8.40;99.90;;;;;;5052419;28;20068;-56
2022/12/23 12:08:50;;;;;;;52.10;20.63;;;8.40;99.90;;;;;;5056681;28;20044;-57
2022/12/23 12:11:19;;;;;;;59.00;20.05;;;8.30;99.90;;;;;;5061565;28;20032;-58
2022/12/23 12:13:48;;;;;;;58.38;20.30;;;8.40;99.90;;;;;;5056333;28;20044;-58
2022/12/23 12:16:36;;;;;;;62.33;21.20;;;8.30;99.90;;;;;;5059486;28;20052;-58
2022/12/23 12:19:05;;;;;;;;;;;8.30;99.90;;;;;;5062166;28;20036;-56
2022/12/23 12:21:36;;;;;;;58.53;19.20;;;8.30;99.90;;;;;;5060519;28;19920;-57
2022/12/23 12:24:26;;;;;;;67.70;20.00;;;8.30;99.90;;;;;;5053250;28;20112;-57
2022/12/23 12:26:55;;;;;;;55.17;21.08;;;8.30;99.90;;;;;;5055811;28;20120;-56
2022/12/23 12:29:31;;;;;;;62.60;22.95;;;8.30;99.90;;;;;;5057006;28;20447;-58
2022/12/23 12:31:58;;;;;;;56.00;21.30;;;8.30;99.90;;;;;;5059487;28;20080;-57
2022/12/23 12:34:49;;;;;;;58.28;20.20;;;8.30;99.90;;;;;;5056638;28;20072;-57
2022/12/23 12:37:46;;;;;;;51.42;18.65;;;8.30;99.90;;;;;;5056154;28;20647;-57
2022/12/23 12:40:39;;;;;;;57.35;21.00;;;8.20;99.90;;;;;;5058303;28;20066;-57
2022/12/23 12:43:11;;;;;;;53.25;19.80;;;8.20;99.90;;;;;;5050329;28;20048;-57
2022/12/23 12:45:47;;;;;;;57.58;20.58;;;8.20;99.90;;;;;;5055542;28;20054;-58
2022/12/23 12:48:45;;;;;;;55.63;20.13;;;8.20;99.90;;;;;;5053814;28;20719;-56
2022/12/23 12:51:19;;;;;;;69.50;23.33;;;8.20;99.90;;;;;;5055356;28;20059;-57
2022/12/23 12:54:10;;;;;;;65.15;22.08;;;8.20;99.90;;;;;;5056730;28;20166;-56
2022/12/23 12:56:47;;;;;;;60.13;20.73;;;8.20;99.90;;;;;;5058908;28;20127;-56
2022/12/23 12:59:21;;;;;;;47.20;18.38;;;8.20;99.90;;;;;;5053126;28;20124;-58
2022/12/23 13:01:51;;;;;;;47.58;18.58;;;8.20;99.90;;;;;;5057976;28;20151;-55
2022/12/23 13:04:31;;;;;;;52.72;19.70;;;8.20;99.90;;;;;;5053575;28;20052;-57
2022/12/23 13:07:37;;;;;;;51.35;18.75;;;8.20;99.90;;;;;;5052239;28;20044;-56
2022/12/23 13:10:08;;;;;;;45.83;18.75;;;8.20;99.90;;;;;;5032387;28;20060;-54
2022/12/23 13:12:48;;;;;;;47.92;18.10;;;8.20;99.90;;;;;;5037634;28;20086;-56
2022/12/23 13:15:19;;;;;;;47.35;17.50;;;8.20;99.90;;;;;;5052751;28;20075;-57
2022/12/23 13:18:06;;;;;;;50.58;19.33;;;8.20;99.90;;;;;;5052136;28;20071;-56
2022/12/23 13:20:41;;;;;;;49.23;19.70;;;8.20;99.90;;;;;;5057457;28;20041;-58
2022/12/23 13:23:14;;;;;;;44.35;17.10;;;8.20;99.90;;;;;;5058067;28;20560;-56